ADDS METAR Data INFO
IDs: Format: Raw Decoded Include TAF

Data at: 1717 UTC 23 Oct 2017

KONZ 231713Z AUTO 15010G14KT 10SM -RA BKN050 OVC065 18/15 A2975 RMK AO2 T01750147
KONZ 231652Z AUTO 16008KT 10SM -RA BKN050 OVC090 18/14 A2977 RMK AO2 T01800142
KONZ 231633Z AUTO 15005KT 10SM SCT050 BKN090 OVC100 19/14 A2978 RMK AO2 T01850138
KONZ 231613Z AUTO 15007KT 10SM SCT050 BKN065 OVC120 19/14 A2979 RMK AO2 T01850138
KONZ 231552Z AUTO 15005KT 10SM BKN050 OVC065 18/14 A2980 RMK AO2 T01810136
KONZ 231533Z AUTO 16008KT 10SM BKN050 BKN090 BKN110 18/13 A2982 RMK AO2 T01800134
KONZ 231513Z AUTO 16008KT 10SM SCT055 BKN075 OVC090 18/13 A2983 RMK AO2 T01770132
KONZ 231452Z AUTO 16008KT 10SM BKN055 OVC070 18/13 A2984 RMK AO2 T01780132
KONZ 231433Z AUTO 17008KT 10SM SCT055 OVC070 17/14 A2985 RMK AO2 T01730135
KONZ 231412Z AUTO 16009KT 10SM SCT055 BKN075 OVC080 18/13 A2986 RMK AO2 T01750132
KONZ 231357Z AUTO 16007KT 10SM SCT055 BKN075 OVC090 18/13 A2986 RMK AO2 T01750130
KONZ 231333Z AUTO 15004KT 10SM SCT055 BKN065 BKN085 17/14 A2986 RMK AO2 T01730135
KONZ 231312Z AUTO 16007KT 10SM BKN055 OVC075 17/13 A2989 RMK AO2 T01720133
KONZ 231252Z AUTO 16006KT 10SM BKN055 BKN065 BKN075 17/13 A2990 RMK AO2 T01690133
KONZ 231233Z AUTO 17004KT 10SM SCT060 BKN065 BKN085 17/13 A2989 RMK AO2 T01700131
KONZ 231212Z AUTO 17006KT 10SM SCT055 BKN085 17/13 A2990 RMK AO2 T01660131
KONZ 231152Z AUTO 17007KT 10SM BKN085 17/13 A2991 RMK AO2 T01660132 10172 20161
KONZ 231133Z AUTO 18007KT 10SM SCT085 17/13 A2991 RMK AO2 T01660130
KONZ 231112Z AUTO 17006KT 10SM SCT060 SCT075 OVC080 17/13 A2992 RMK AO2 T01650130
KONZ 231052Z AUTO 16006KT 10SM BKN060 OVC075 17/13 A2993 RMK AO2 T01660132
KONZ 231033Z AUTO 16005KT 10SM SCT060 OVC070 17/14 A2993 RMK AO2 T01650135
KONZ 231012Z AUTO 16006KT 10SM SCT060 OVC070 17/14 A2993 RMK AO2 T01650135
KONZ 230952Z AUTO 17006KT 10SM OVC060 16/14 A2994 RMK AO2 T01630135
KONZ 230933Z AUTO 17006KT 10SM BKN060 16/13 A2994 RMK AO2 T01610133
KONZ 230912Z AUTO 17006KT 10SM CLR 16/13 A2995 RMK AO2 T01640133
KONZ 230852Z AUTO 17005KT 10SM CLR 16/13 A2995 RMK AO2 T01630132
KONZ 230833Z AUTO 17004KT 10SM CLR 16/13 A2996 RMK AO2 T01640133
KONZ 230812Z AUTO 17007KT 10SM CLR 17/13 A2997 RMK AO2 T01650133
KONZ 230752Z AUTO 16005KT 10SM CLR 17/13 A2997 RMK AO2 T01650134
KONZ 230733Z AUTO 16006KT 10SM CLR 17/13 A2998 RMK AO2 T01650132
KONZ 230712Z AUTO 17007KT 10SM CLR 17/13 A2998 RMK AO2 T01660131
KONZ 230652Z AUTO 17007KT 10SM CLR 17/13 A2999 RMK AO2 T01680131
KONZ 230633Z AUTO 17007KT 10SM CLR 17/13 A2999 RMK AO2 T01700130
KONZ 230612Z AUTO 18007KT 10SM CLR 17/13 A2999 RMK AO2 T01700130
KONZ 230552Z AUTO 17008KT 10SM CLR 17/13 A3000 RMK AO2 T01720127 10200 20161 402240143
KONZ 230533Z AUTO 18006KT 10SM CLR 17/13 A3000 RMK AO2 T01690130
KONZ 230512Z AUTO 18004KT 10SM CLR 16/14 A3001 RMK AO2 T01630136
KONZ 230453Z AUTO 19005KT 10SM CLR 17/13 A3001 RMK AO2 T01650132
KONZ 230433Z AUTO 17006KT 10SM CLR 17/13 A3002 RMK AO2 T01650133
KONZ 230412Z AUTO 18006KT 10SM CLR 17/13 A3002 RMK AO2 T01720131
KONZ 230353Z AUTO 17007KT 10SM CLR 18/13 A3002 RMK AO2 T01750129
KONZ 230333Z AUTO 17009KT 10SM CLR 18/13 A3003 RMK AO2 T01770128
KONZ 230312Z AUTO 17008KT 10SM CLR 18/13 A3004 RMK AO2 T01760134
KONZ 230253Z AUTO 18008G14KT 10SM CLR 18/13 A3004 RMK AO2 T01780134
KONZ 230232Z AUTO 17008KT 10SM CLR 17/14 A3005 RMK AO2 T01730135
KONZ 230212Z AUTO 19007KT 10SM CLR 17/14 A3005 RMK AO2 T01650140
KONZ 230153Z AUTO 20007KT 10SM CLR 17/14 A3005 RMK AO2 T01700140
KONZ 230133Z AUTO 19010KT 10SM CLR 19/13 A3005 RMK AO2 T01850132
KONZ 230112Z AUTO 18010KT 10SM CLR 19/13 A3005 RMK AO2 T01880131
KONZ 230053Z AUTO 18012G16KT 10SM CLR 19/13 A3005 RMK AO2 T01910132
KONZ 230033Z AUTO 17013G21KT 10SM CLR 20/13 A3005 RMK AO2 T01970130
KONZ 230012Z AUTO 17015G19KT 10SM CLR 20/13 A3005 RMK AO2 T01950131
KONZ 222353Z AUTO 16013G19KT 10SM CLR 20/13 A3004 RMK AO2 T02010131 10224 20191
KONZ 222333Z AUTO 16012G17KT 10SM CLR 20/14 A3004 RMK AO2 T01980135
KONZ 222312Z AUTO 16012G16KT 10SM CLR 20/14 A3004 RMK AO2 T01970135
KONZ 222253Z AUTO 16011G16KT 10SM CLR 20/14 A3004 RMK AO2 T01980136
KONZ 222233Z AUTO 16012G17KT 10SM CLR 20/14 A3004 RMK AO2 T01960139
KONZ 222212Z AUTO 16009KT 10SM CLR 20/14 A3004 RMK AO2 T01950141
KONZ 222153Z AUTO 16011G16KT 10SM CLR 20/14 A3005 RMK AO2 T02010140
KONZ 222133Z AUTO 16010KT 10SM CLR 21/14 A3004 RMK AO2 T02090141
KONZ 222112Z AUTO 17010KT 10SM CLR 21/14 A3005 RMK AO2 T02070142
KONZ 222053Z AUTO 17010G16KT 10SM CLR 21/14 A3005 RMK AO2 T02140143
KONZ 222033Z AUTO 16011KT 10SM CLR 22/15 A3005 RMK AO2 T02170145
KONZ 222012Z AUTO 17009KT 10SM CLR 22/15 A3005 RMK AO2 T02220145
KONZ 221953Z AUTO 15009KT 10SM CLR 22/14 A3006 RMK AO2 T02210142
KONZ 221933Z AUTO 16011KT 10SM CLR 22/14 A3006 RMK AO2 T02180144
KONZ 221912Z AUTO 16008KT 10SM CLR 21/15 A3007 RMK AO2 T02140148
KONZ 221853Z AUTO 17007KT 10SM CLR 21/15 A3008 RMK AO2 T02100150
KONZ 221833Z AUTO 17008KT 10SM CLR 21/15 A3009 RMK AO2 T02110146
KONZ 221812Z AUTO 16009KT 10SM CLR 21/15 A3009 RMK AO2 T02050145
KONZ 221753Z AUTO 17009KT 10SM CLR 21/14 A3010 RMK AO2 T02050144 10205 20152
KONZ 221733Z AUTO 16008KT 10SM CLR 20/14 A3011 RMK AO2 T01970140
KONZ 221712Z AUTO 17008KT 10SM CLR 20/14 A3013 RMK AO2 T01950140
KONZ 221653Z AUTO 16009KT 10SM CLR 19/14 A3014 RMK AO2 T01940139
KONZ 221633Z AUTO 17008KT 10SM CLR 19/14 A3015 RMK AO2 T01890139
KONZ 221612Z AUTO 18007KT 10SM CLR 19/14 A3016 RMK AO2 T01850135
KONZ 221553Z AUTO 18008KT 10SM CLR 18/13 A3017 RMK AO2 T01800131
KONZ 221533Z AUTO 19007KT 10SM CLR 18/13 A3017 RMK AO2 T01810133
KONZ 221512Z AUTO 19009KT 10SM CLR 18/13 A3017 RMK AO2 T01780131
KONZ 221453Z AUTO 19008KT 10SM CLR 17/13 A3018 RMK AO2 T01720134
KONZ 221433Z AUTO 19007KT 10SM CLR 18/14 A3018 RMK AO2 T01750137
KONZ 221412Z AUTO 18008KT 10SM CLR 17/14 A3018 RMK AO2 T01700135
KONZ 221353Z AUTO 18008KT 10SM CLR 17/14 A3018 RMK AO2 T01700135
KONZ 221333Z AUTO 18006KT 10SM CLR 17/14 A3018 RMK AO2 T01660137
KONZ 221312Z AUTO 19007KT 10SM CLR 16/13 A3018 RMK AO2 T01620134
KONZ 221253Z AUTO 17007KT 10SM CLR 16/13 A3017 RMK AO2 T01580133
KONZ 221233Z AUTO 10SM CLR 15/13 A3016 RMK AO2 T01540130
KONZ 221212Z AUTO 17006KT 10SM CLR 15/13 A3016 RMK AO2 T01530130
KONZ 221153Z AUTO 16007KT 10SM CLR 15/13 A3015 RMK AO2 T01520130 10154 20143
KONZ 221132Z AUTO 15007KT 10SM CLR 15/13 A3015 RMK AO2 T01510131
KONZ 221113Z AUTO 16006KT 10SM CLR 15/13 A3016 RMK AO2 T01500130
KONZ 221053Z AUTO 16006KT 10SM CLR 15/13 A3016 RMK AO2 T01490130
KONZ 221032Z AUTO 17006KT 10SM CLR 15/13 A3016 RMK AO2 T01500127
KONZ 221013Z AUTO 17006KT 10SM CLR 15/13 A3016 RMK AO2 T01480127
KONZ 220953Z AUTO 16005KT 10SM CLR 15/13 A3016 RMK AO2 T01470128
KONZ 220932Z AUTO 16004KT 10SM CLR 15/13 A3016 RMK AO2 T01470128
KONZ 220913Z AUTO 17006KT 10SM CLR 15/13 A3016 RMK AO2 T01490125
KONZ 220853Z AUTO 16004KT 10SM CLR 15/13 A3017 RMK AO2 T01500126
KONZ 220832Z AUTO 17005KT 10SM CLR 15/13 A3017 RMK AO2 T01500125
KONZ 220813Z AUTO 17005KT 10SM CLR 15/13 A3017 RMK AO2 T01520127
KONZ 220753Z AUTO 18006KT 10SM CLR 15/13 A3017 RMK AO2 T01450126
KONZ 220732Z AUTO 18005KT 10SM CLR 14/13 A3017 RMK AO2 T01440125
KONZ 220713Z AUTO 18005KT 10SM CLR 15/13 A3017 RMK AO2 T01470125
KONZ 220652Z AUTO 19005KT 10SM CLR 15/12 A3016 RMK AO2 T01460119
KONZ 220632Z AUTO 18005KT 10SM CLR 15/12 A3016 RMK AO2 T01500122
KONZ 220613Z AUTO 17004KT 10SM CLR 15/12 A3016 RMK AO2 T01450118
KONZ 220553Z AUTO 18004KT 10SM CLR 15/12 A3017 RMK AO2 T01460116 10203 20143 402030132
KONZ 220532Z AUTO 19003KT 10SM CLR 15/12 A3016 RMK AO2 T01450122